KPHL/PHL METAR and TAF weather

Enter ICAO airport designator
Station Type Date Time Source
KPHL METAR 2022/06/27 07:54 UTC NOAA

KPHL 270754Z 20008KT 10SM FEW090 SCT110 BKN150 24/19 A2997 RMK AO2 SLP149 T02390194


Station Type Date Time Source
KPHL Decoded METAR 2022/06/27 07:54 UTC NOAA

PHILADELPHIA INTERNATIONAL AIRPT, PA, United States (KPHL) 39-52N 075-14W 18M
Jun 27, 2022 - 03:54 AM EDT / 2022.06.27 0754 UTC
Wind: from the SSW (200 degrees) at 9 MPH (8 KT):0
Visibility: 10 mile(s):0
Sky conditions: mostly cloudy
Temperature: 75.0 F (23.9 C)
Dew Point: 66.9 F (19.4 C)
Relative Humidity: 75%
Pressure (altimeter): 29.97 in. Hg (1014 hPa)
ob: KPHL 270754Z 20008KT 10SM FEW090 SCT110 BKN150 24/19 A2997 RMK AO2 SLP149 T02390194
cycle: 8

Station Type Date Time Source
KPHL TAF 2022/06/27 06:22 UTC NOAA

TAF KPHL 270520Z 2706/2812 20009KT P6SM OVC100
FM271300 24010KT 6SM -RA BR OVC015
TEMPO 2713/2717 4SM -SHRA BR
FM271700 28010KT P6SM OVC010
TEMPO 2717/2719 4SM TSRA OVC010CB
FM271900 30008KT P6SM OVC050
TEMPO 2719/2721 4SM TSRA OVC015CB
FM272100 30008KT P6SM SCT050 OVC200
FM280100 32008KT P6SM SKC

Example: see airport list